Saltar para o conteúdo principal

Braga (CIM)

ID 6212124 · 41.5357, -8.4251 mapa

Última leitura · 2026-05-09 19:00 (Europe/Lisbon)

Temperatura
13.7 °C
Humidade
88 %
Pressão
1,007.4 hPa
Precipitação
1.0 mm
Radiação
Velocidade do vento
8.3 km/h
Direcção do vento
SW · Sudoeste

Histórico de 24 horas

Hora (Europe/Lisbon) Temperatura Humidade Pressão Chuva Vento Direcção
2026-05-09 19:00 13.7 °C 88 % 1,007.4 1.0 mm 8.3 km/h SW
2026-05-09 18:00 14.3 °C 84 % 1,006.7 0.4 mm 10.8 km/h S
2026-05-09 17:00 13.9 °C 89 % 1,006.7 0.0 mm 5.8 km/h S
2026-05-09 16:00 12.4 °C 88 % 1,006.5 2.1 mm 7.9 km/h S
2026-05-09 15:00 15.9 °C 77 % 1,005.2 0.6 mm 19.1 km/h SW
2026-05-09 14:00 15.5 °C 78 % 1,005.5 0.1 mm 10.8 km/h SE
2026-05-09 13:00 13.4 °C 93 % 1,006.1 1.4 mm 7.9 km/h SE
2026-05-09 12:00 13.9 °C 82 % 1,006.1 3.9 mm 9.4 km/h SW
2026-05-09 11:00 16.1 °C 65 % 1,005.4 0.4 mm 19.1 km/h SE
2026-05-09 10:00 16.0 °C 65 % 1,005.4 0.0 mm 16.9 km/h SE
2026-05-09 09:00 15.0 °C 66 % 1,005.7 0.0 mm 15.8 km/h SE
2026-05-09 08:00 14.4 °C 65 % 1,005.7 0.0 mm 15.5 km/h SE
2026-05-09 07:00 13.7 °C 70 % 1,005.9 0.0 mm 14.4 km/h SE
2026-05-09 06:00 13.6 °C 72 % 1,006.1 0.0 mm 11.5 km/h SE
2026-05-09 05:00 13.5 °C 75 % 1,006.4 0.0 mm 11.2 km/h SE
2026-05-09 04:00 13.1 °C 80 % 1,006.8 0.0 mm 10.4 km/h SE
2026-05-09 03:00 12.8 °C 83 % 1,007.0 0.1 mm 8.6 km/h SE
2026-05-09 02:00 13.6 °C 77 % 1,007.9 1.1 mm 10.4 km/h SE
2026-05-09 01:00 15.8 °C 57 % 1,007.1 0.0 mm 9.7 km/h SE
2026-05-09 00:00 15.9 °C 55 % 1,007.4 0.0 mm 18.4 km/h SE
2026-05-08 23:00 15.6 °C 57 % 1,008.1 0.0 mm 15.8 km/h E
2026-05-08 22:00 14.9 °C 64 % 1,008.6 0.0 mm 8.6 km/h SE
2026-05-08 21:00 15.1 °C 66 % 1,008.7 0.0 mm 11.2 km/h E
2026-05-08 20:00 16.1 °C 59 % 1,009.0 0.0 mm 9.0 km/h E